sensor_id;sensor_type;location;lat;lon;timestamp;pressure;altitude;pressure_sealevel;temperature;humidity
72038;BME280;59900;50.788;12.904;2022-09-27T00:01:04;95781.84;;;11.78;68.82
72038;BME280;59900;50.788;12.904;2022-09-27T00:03:30;95778.47;;;11.83;68.92
72038;BME280;59900;50.788;12.904;2022-09-27T00:08:30;95773.47;;;11.82;68.70
72038;BME280;59900;50.788;12.904;2022-09-27T00:11:00;95762.44;;;11.85;68.50
72038;BME280;59900;50.788;12.904;2022-09-27T00:13:26;95756.91;;;11.86;68.42
72038;BME280;59900;50.788;12.904;2022-09-27T00:15:59;95747.44;;;11.85;68.72
72038;BME280;59900;50.788;12.904;2022-09-27T00:18:25;95749.28;;;11.85;68.39
72038;BME280;59900;50.788;12.904;2022-09-27T00:20:51;95739.56;;;11.85;68.05
72038;BME280;59900;50.788;12.904;2022-09-27T00:23:16;95741.94;;;11.87;67.87
72038;BME280;59900;50.788;12.904;2022-09-27T00:25:41;95739.28;;;11.87;68.17
72038;BME280;59900;50.788;12.904;2022-09-27T00:28:07;95733.50;;;11.85;67.39
72038;BME280;59900;50.788;12.904;2022-09-27T00:30:33;95739.28;;;11.87;67.60
72038;BME280;59900;50.788;12.904;2022-09-27T00:32:58;95727.97;;;11.86;67.51
72038;BME280;59900;50.788;12.904;2022-09-27T00:35:23;95736.94;;;11.85;67.08
72038;BME280;59900;50.788;12.904;2022-09-27T00:37:48;95732.69;;;11.84;67.17
72038;BME280;59900;50.788;12.904;2022-09-27T00:40:14;95726.41;;;11.85;67.11
72038;BME280;59900;50.788;12.904;2022-09-27T00:42:40;95724.56;;;11.86;67.16
72038;BME280;59900;50.788;12.904;2022-09-27T00:45:14;95722.16;;;11.84;67.19
72038;BME280;59900;50.788;12.904;2022-09-27T00:47:51;95718.19;;;11.82;67.54
72038;BME280;59900;50.788;12.904;2022-09-27T00:50:31;95706.88;;;11.81;67.32
72038;BME280;59900;50.788;12.904;2022-09-27T00:53:11;95698.44;;;11.79;67.33
72038;BME280;59900;50.788;12.904;2022-09-27T00:55:42;95696.66;;;11.85;67.41
72038;BME280;59900;50.788;12.904;2022-09-27T00:58:11;95694.81;;;11.85;67.44
72038;BME280;59900;50.788;12.904;2022-09-27T01:00:44;95697.69;;;11.84;67.54
72038;BME280;59900;50.788;12.904;2022-09-27T01:03:12;95687.72;;;11.86;67.71
72038;BME280;59900;50.788;12.904;2022-09-27T01:05:40;95682.47;;;11.86;67.60
72038;BME280;59900;50.788;12.904;2022-09-27T01:08:06;95671.13;;;11.85;68.00
72038;BME280;59900;50.788;12.904;2022-09-27T01:10:35;95677.91;;;11.81;68.47
72038;BME280;59900;50.788;12.904;2022-09-27T01:13:19;95665.56;;;11.82;68.03
72038;BME280;59900;50.788;12.904;2022-09-27T01:16:15;95670.81;;;11.82;68.33
72038;BME280;59900;50.788;12.904;2022-09-27T01:19:21;95670.03;;;11.81;68.55
72038;BME280;59900;50.788;12.904;2022-09-27T01:27:54;95653.09;;;11.72;68.88
72038;BME280;59900;50.788;12.904;2022-09-27T01:30:29;95647.03;;;11.71;69.03
72038;BME280;59900;50.788;12.904;2022-09-27T01:33:09;95636.50;;;11.71;68.82
72038;BME280;59900;50.788;12.904;2022-09-27T01:35:49;95642.22;;;11.68;68.73
72038;BME280;59900;50.788;12.904;2022-09-27T01:38:29;95637.78;;;11.69;69.04
72038;BME280;59900;50.788;12.904;2022-09-27T01:41:07;95622.25;;;11.67;69.10
72038;BME280;59900;50.788;12.904;2022-09-27T01:43:43;95624.06;;;11.67;69.21
72038;BME280;59900;50.788;12.904;2022-09-27T01:46:15;95613.56;;;11.67;68.94
72038;BME280;59900;50.788;12.904;2022-09-27T01:48:45;95608.28;;;11.67;69.43
72038;BME280;59900;50.788;12.904;2022-09-27T01:51:18;95613.56;;;11.67;69.29
72038;BME280;59900;50.788;12.904;2022-09-27T01:53:51;95608.53;;;11.65;69.52
72038;BME280;59900;50.788;12.904;2022-09-27T01:56:31;95598.31;;;11.69;69.21
72038;BME280;59900;50.788;12.904;2022-09-27T01:59:01;95596.97;;;11.66;69.47
72038;BME280;59900;50.788;12.904;2022-09-27T02:01:29;95599.06;;;11.64;69.57
72038;BME280;59900;50.788;12.904;2022-09-27T02:03:57;95593.81;;;11.64;69.78
72038;BME280;59900;50.788;12.904;2022-09-27T02:06:30;95592.75;;;11.65;69.47
72038;BME280;59900;50.788;12.904;2022-09-27T02:09:06;95584.84;;;11.65;69.93
72038;BME280;59900;50.788;12.904;2022-09-27T02:11:34;95587.22;;;11.62;69.89
72038;BME280;59900;50.788;12.904;2022-09-27T02:14:19;95584.09;;;11.65;70.16
72038;BME280;59900;50.788;12.904;2022-09-27T02:16:58;95576.19;;;11.65;70.16
72038;BME280;59900;50.788;12.904;2022-09-27T02:22:14;95574.06;;;11.62;70.57
72038;BME280;59900;50.788;12.904;2022-09-27T02:24:45;95581.44;;;11.65;70.44
72038;BME280;59900;50.788;12.904;2022-09-27T02:27:19;95579.34;;;11.67;70.53
72038;BME280;59900;50.788;12.904;2022-09-27T02:29:49;95576.69;;;11.62;70.28
72038;BME280;59900;50.788;12.904;2022-09-27T02:32:17;95572.72;;;11.59;70.78
72038;BME280;59900;50.788;12.904;2022-09-27T02:34:46;95568.00;;;11.61;70.97
72038;BME280;59900;50.788;12.904;2022-09-27T02:37:20;95569.03;;;11.60;71.09
72038;BME280;59900;50.788;12.904;2022-09-27T02:39:48;95560.34;;;11.60;71.34
72038;BME280;59900;50.788;12.904;2022-09-27T02:42:14;95563.47;;;11.57;71.25
72038;BME280;59900;50.788;12.904;2022-09-27T02:44:40;95557.44;;;11.56;72.07
72038;BME280;59900;50.788;12.904;2022-09-27T02:47:41;95557.66;;;11.55;72.06
72038;BME280;59900;50.788;12.904;2022-09-27T02:50:36;95553.44;;;11.54;72.46
72038;BME280;59900;50.788;12.904;2022-09-27T02:53:18;95552.91;;;11.52;71.74
72038;BME280;59900;50.788;12.904;2022-09-27T02:56:09;95546.63;;;11.53;72.45
72038;BME280;59900;50.788;12.904;2022-09-27T02:58:43;95548.16;;;11.49;72.36
72038;BME280;59900;50.788;12.904;2022-09-27T03:01:24;95548.44;;;11.52;72.79
72038;BME280;59900;50.788;12.904;2022-09-27T03:03:56;95547.91;;;11.50;72.67
72038;BME280;59900;50.788;12.904;2022-09-27T03:06:23;95549.19;;;11.48;72.44
72038;BME280;59900;50.788;12.904;2022-09-27T03:08:49;95547.59;;;11.47;73.00
72038;BME280;59900;50.788;12.904;2022-09-27T03:11:15;95543.91;;;11.48;72.53
72038;BME280;59900;50.788;12.904;2022-09-27T03:13:42;95545.50;;;11.49;72.70
72038;BME280;59900;50.788;12.904;2022-09-27T03:16:08;95545.22;;;11.45;72.74
72038;BME280;59900;50.788;12.904;2022-09-27T03:18:33;95536.25;;;11.41;73.22
72038;BME280;59900;50.788;12.904;2022-09-27T03:20:58;95537.06;;;11.42;73.55
72038;BME280;59900;50.788;12.904;2022-09-27T03:23:24;95529.16;;;11.42;73.72
72038;BME280;59900;50.788;12.904;2022-09-27T03:25:49;95541.25;;;11.43;73.70
72038;BME280;59900;50.788;12.904;2022-09-27T03:28:16;95527.06;;;11.44;73.48
72038;BME280;59900;50.788;12.904;2022-09-27T03:30:43;95525.16;;;11.39;73.95
72038;BME280;59900;50.788;12.904;2022-09-27T03:33:09;95532.53;;;11.37;74.09
72038;BME280;59900;50.788;12.904;2022-09-27T03:35:34;95528.56;;;11.35;74.27
72038;BME280;59900;50.788;12.904;2022-09-27T03:38:00;95529.84;;;11.32;74.68
72038;BME280;59900;50.788;12.904;2022-09-27T03:40:26;95524.81;;;11.31;75.33
72038;BME280;59900;50.788;12.904;2022-09-27T03:42:51;95530.03;;;11.25;76.23
72038;BME280;59900;50.788;12.904;2022-09-27T03:45:17;95531.84;;;11.20;76.82
72038;BME280;59900;50.788;12.904;2022-09-27T03:47:42;95530.25;;;11.19;77.24
72038;BME280;59900;50.788;12.904;2022-09-27T03:50:09;95534.69;;;11.18;77.99
72038;BME280;59900;50.788;12.904;2022-09-27T03:52:35;95531.78;;;11.15;78.55
72038;BME280;59900;50.788;12.904;2022-09-27T03:55:00;95527.25;;;11.10;78.76
72038;BME280;59900;50.788;12.904;2022-09-27T03:57:26;95523.56;;;11.06;79.24
72038;BME280;59900;50.788;12.904;2022-09-27T03:59:51;95518.03;;;11.08;79.88
72038;BME280;59900;50.788;12.904;2022-09-27T04:02:16;95519.94;;;11.12;79.43
72038;BME280;59900;50.788;12.904;2022-09-27T04:04:42;95518.34;;;11.11;80.43
72038;BME280;59900;50.788;12.904;2022-09-27T04:07:07;95513.59;;;11.08;81.14
72038;BME280;59900;50.788;12.904;2022-09-27T04:09:34;95510.97;;;11.08;81.35
72038;BME280;59900;50.788;12.904;2022-09-27T04:11:59;95515.41;;;11.08;81.56
72038;BME280;59900;50.788;12.904;2022-09-27T04:14:24;95503.06;;;11.08;81.49
72038;BME280;59900;50.788;12.904;2022-09-27T04:16:50;95503.59;;;11.10;81.99
72038;BME280;59900;50.788;12.904;2022-09-27T04:19:15;95505.75;;;11.13;82.72
72038;BME280;59900;50.788;12.904;2022-09-27T04:21:40;95508.81;;;11.05;82.65
72038;BME280;59900;50.788;12.904;2022-09-27T04:24:05;95500.81;;;10.95;83.36
72038;BME280;59900;50.788;12.904;2022-09-27T04:26:31;95499.78;;;10.96;83.03
72038;BME280;59900;50.788;12.904;2022-09-27T04:28:56;95503.44;;;10.95;83.07
72038;BME280;59900;50.788;12.904;2022-09-27T04:31:22;95498.19;;;10.95;83.32
72038;BME280;59900;50.788;12.904;2022-09-27T04:33:47;95497.63;;;10.88;83.61
72038;BME280;59900;50.788;12.904;2022-09-27T04:36:20;95489.72;;;10.88;83.39
72038;BME280;59900;50.788;12.904;2022-09-27T04:38:55;95495.00;;;10.88;83.97
72038;BME280;59900;50.788;12.904;2022-09-27T04:41:22;95499.69;;;10.86;84.55
72038;BME280;59900;50.788;12.904;2022-09-27T04:43:51;95499.03;;;10.74;85.43
72038;BME280;59900;50.788;12.904;2022-09-27T04:46:17;95497.41;;;10.68;85.04
72038;BME280;59900;50.788;12.904;2022-09-27T04:48:42;95501.59;;;10.69;85.45
72038;BME280;59900;50.788;12.904;2022-09-27T04:51:08;95499.22;;;10.67;85.14
72038;BME280;59900;50.788;12.904;2022-09-27T04:53:34;95498.16;;;10.68;85.43
72038;BME280;59900;50.788;12.904;2022-09-27T04:55:59;95498.16;;;10.68;86.41
72038;BME280;59900;50.788;12.904;2022-09-27T04:58:30;95496.59;;;10.67;86.77
72038;BME280;59900;50.788;12.904;2022-09-27T05:00:55;95498.97;;;10.69;86.40
72038;BME280;59900;50.788;12.904;2022-09-27T05:03:21;95502.69;;;10.73;86.20
72038;BME280;59900;50.788;12.904;2022-09-27T05:05:46;95507.16;;;10.73;85.96
72038;BME280;59900;50.788;12.904;2022-09-27T05:08:12;95504.78;;;10.71;86.26
72038;BME280;59900;50.788;12.904;2022-09-27T05:10:38;95505.03;;;10.69;86.36
72038;BME280;59900;50.788;12.904;2022-09-27T05:13:03;95504.28;;;10.74;86.31
72038;BME280;59900;50.788;12.904;2022-09-27T05:15:28;95503.25;;;10.75;86.79
72038;BME280;59900;50.788;12.904;2022-09-27T05:17:54;95510.63;;;10.78;86.73
72038;BME280;59900;50.788;12.904;2022-09-27T05:20:19;95510.09;;;10.76;86.54
72038;BME280;59900;50.788;12.904;2022-09-27T05:22:45;95504.22;;;10.69;85.98
72038;BME280;59900;50.788;12.904;2022-09-27T05:25:11;95502.66;;;10.68;86.78
72038;BME280;59900;50.788;12.904;2022-09-27T05:27:36;95493.94;;;10.62;86.53
72038;BME280;59900;50.788;12.904;2022-09-27T05:30:02;95493.63;;;10.59;86.48
72038;BME280;59900;50.788;12.904;2022-09-27T05:32:28;95489.88;;;10.55;86.55
72038;BME280;59900;50.788;12.904;2022-09-27T05:34:53;95492.50;;;10.55;87.04
72038;BME280;59900;50.788;12.904;2022-09-27T05:37:19;95489.09;;;10.54;86.77
72038;BME280;59900;50.788;12.904;2022-09-27T05:39:44;95490.91;;;10.54;86.41
72038;BME280;59900;50.788;12.904;2022-09-27T05:42:10;95490.41;;;10.57;86.63
72038;BME280;59900;50.788;12.904;2022-09-27T05:44:39;95493.00;;;10.52;86.14
72038;BME280;59900;50.788;12.904;2022-09-27T05:47:04;95487.75;;;10.52;86.04
72038;BME280;59900;50.788;12.904;2022-09-27T05:49:30;95489.34;;;10.53;86.41
72038;BME280;59900;50.788;12.904;2022-09-27T05:51:56;95488.84;;;10.56;85.86
72038;BME280;59900;50.788;12.904;2022-09-27T05:54:21;95489.69;;;10.61;85.14
72038;BME280;59900;50.788;12.904;2022-09-27T05:56:46;95487.38;;;10.65;85.22
72038;BME280;59900;50.788;12.904;2022-09-27T05:59:12;95488.94;;;10.66;85.24
72038;BME280;59900;50.788;12.904;2022-09-27T06:01:37;95500.25;;;10.66;85.05
72038;BME280;59900;50.788;12.904;2022-09-27T06:04:03;95490.81;;;10.65;85.33
72038;BME280;59900;50.788;12.904;2022-09-27T06:06:30;95498.16;;;10.68;85.30
72038;BME280;59900;50.788;12.904;2022-09-27T06:08:55;95494.81;;;10.73;85.26
72038;BME280;59900;50.788;12.904;2022-09-27T06:11:21;95489.38;;;10.80;85.41
72038;BME280;59900;50.788;12.904;2022-09-27T06:13:47;95496.19;;;10.81;85.04
72038;BME280;59900;50.788;12.904;2022-09-27T06:16:12;95486.19;;;10.78;85.24
72038;BME280;59900;50.788;12.904;2022-09-27T06:18:37;95489.06;;;10.76;84.85
72038;BME280;59900;50.788;12.904;2022-09-27T06:21:03;95485.59;;;10.71;84.71
72038;BME280;59900;50.788;12.904;2022-09-27T06:23:30;95475.31;;;10.69;85.13
72038;BME280;59900;50.788;12.904;2022-09-27T06:26:04;95480.56;;;10.69;85.25
72038;BME280;59900;50.788;12.904;2022-09-27T06:28:30;95481.31;;;10.64;84.99
72038;BME280;59900;50.788;12.904;2022-09-27T06:30:56;95486.81;;;10.63;84.77
72038;BME280;59900;50.788;12.904;2022-09-27T06:33:24;95480.78;;;10.62;85.17
72038;BME280;59900;50.788;12.904;2022-09-27T06:35:52;95480.00;;;10.62;85.14
72038;BME280;59900;50.788;12.904;2022-09-27T06:38:17;95481.56;;;10.63;85.65
72038;BME280;59900;50.788;12.904;2022-09-27T06:40:43;95488.94;;;10.66;84.86
72038;BME280;59900;50.788;12.904;2022-09-27T06:43:17;95492.16;;;10.68;85.00
72038;BME280;59900;50.788;12.904;2022-09-27T06:45:43;95500.25;;;10.66;85.00
72038;BME280;59900;50.788;12.904;2022-09-27T06:48:10;95494.47;;;10.64;83.91
72038;BME280;59900;50.788;12.904;2022-09-27T06:50:38;95495.44;;;10.58;83.52
72038;BME280;59900;50.788;12.904;2022-09-27T06:53:05;95496.25;;;10.59;83.42
72038;BME280;59900;50.788;12.904;2022-09-27T06:55:30;95505.41;;;10.56;83.56
72038;BME280;59900;50.788;12.904;2022-09-27T06:57:57;95497.75;;;10.55;83.82
72038;BME280;59900;50.788;12.904;2022-09-27T07:00:41;95499.34;;;10.56;83.33
72038;BME280;59900;50.788;12.904;2022-09-27T07:03:10;95502.22;;;10.54;83.29
72038;BME280;59900;50.788;12.904;2022-09-27T07:05:36;95503.81;;;10.55;83.51
72038;BME280;59900;50.788;12.904;2022-09-27T07:08:03;95509.88;;;10.56;83.76
72038;BME280;59900;50.788;12.904;2022-09-27T07:10:31;95516.19;;;10.60;83.46
72038;BME280;59900;50.788;12.904;2022-09-27T07:13:09;95511.75;;;10.60;83.83
72038;BME280;59900;50.788;12.904;2022-09-27T07:15:35;95514.72;;;10.69;83.30
72038;BME280;59900;50.788;12.904;2022-09-27T07:18:02;95512.19;;;10.74;82.79
72038;BME280;59900;50.788;12.904;2022-09-27T07:20:28;95510.81;;;10.72;82.10
72038;BME280;59900;50.788;12.904;2022-09-27T07:22:54;95522.72;;;10.79;82.31
72038;BME280;59900;50.788;12.904;2022-09-27T07:25:19;95520.97;;;10.85;82.13
72038;BME280;59900;50.788;12.904;2022-09-27T07:27:45;95524.91;;;10.87;81.46
72038;BME280;59900;50.788;12.904;2022-09-27T07:30:11;95523.41;;;10.91;81.46
72038;BME280;59900;50.788;12.904;2022-09-27T07:32:36;95532.81;;;10.87;81.93
72038;BME280;59900;50.788;12.904;2022-09-27T07:35:03;95531.22;;;10.86;83.05
72038;BME280;59900;50.788;12.904;2022-09-27T07:37:31;95530.84;;;10.78;83.26
72038;BME280;59900;50.788;12.904;2022-09-27T07:39:57;95527.72;;;10.81;83.63
72038;BME280;59900;50.788;12.904;2022-09-27T07:42:22;95542.78;;;10.85;83.06
72038;BME280;59900;50.788;12.904;2022-09-27T07:44:48;95542.34;;;10.93;83.11
72038;BME280;59900;50.788;12.904;2022-09-27T07:47:13;95539.75;;;10.98;82.60
72038;BME280;59900;50.788;12.904;2022-09-27T07:49:38;95540.06;;;11.02;82.72
72038;BME280;59900;50.788;12.904;2022-09-27T07:52:04;95540.81;;;10.97;82.89
72038;BME280;59900;50.788;12.904;2022-09-27T07:54:29;95541.84;;;10.96;82.31
72038;BME280;59900;50.788;12.904;2022-09-27T07:56:54;95549.09;;;10.89;82.23
72038;BME280;59900;50.788;12.904;2022-09-27T07:59:20;95548.38;;;10.94;82.42
72038;BME280;59900;50.788;12.904;2022-09-27T08:01:45;95545.22;;;10.92;82.18
72038;BME280;59900;50.788;12.904;2022-09-27T08:04:10;95550.72;;;10.90;82.02
72038;BME280;59900;50.788;12.904;2022-09-27T08:06:35;95546.47;;;10.89;81.35
72038;BME280;59900;50.788;12.904;2022-09-27T08:09:05;95553.09;;;10.92;81.24
72038;BME280;59900;50.788;12.904;2022-09-27T08:11:30;95555.25;;;10.95;80.68
72038;BME280;59900;50.788;12.904;2022-09-27T08:13:55;95556.59;;;10.97;81.00
72038;BME280;59900;50.788;12.904;2022-09-27T08:16:21;95551.38;;;11.02;79.95
72038;BME280;59900;50.788;12.904;2022-09-27T08:18:46;95556.13;;;11.05;79.19
72038;BME280;59900;50.788;12.904;2022-09-27T08:21:11;95555.03;;;11.01;78.76
72038;BME280;59900;50.788;12.904;2022-09-27T08:23:36;95549.59;;;11.08;79.68
72038;BME280;59900;50.788;12.904;2022-09-27T08:26:02;95563.56;;;11.13;80.00
72038;BME280;59900;50.788;12.904;2022-09-27T08:28:27;95565.63;;;11.06;79.28
72038;BME280;59900;50.788;12.904;2022-09-27T08:30:56;95563.00;;;11.06;78.97
72038;BME280;59900;50.788;12.904;2022-09-27T08:33:23;95573.00;;;11.09;80.11
72038;BME280;59900;50.788;12.904;2022-09-27T08:35:50;95560.41;;;11.11;79.71
72038;BME280;59900;50.788;12.904;2022-09-27T08:38:15;95560.72;;;11.15;79.98
72038;BME280;59900;50.788;12.904;2022-09-27T08:46:35;95563.25;;;11.32;81.39
72038;BME280;59900;50.788;12.904;2022-09-27T08:49:11;95577.97;;;11.33;78.49
72038;BME280;59900;50.788;12.904;2022-09-27T08:51:39;95590.06;;;11.34;79.23
72038;BME280;59900;50.788;12.904;2022-09-27T08:56:35;95579.03;;;11.32;79.81
72038;BME280;59900;50.788;12.904;2022-09-27T08:59:22;95584.78;;;11.29;79.21
72038;BME280;59900;50.788;12.904;2022-09-27T09:01:50;95585.88;;;11.33;79.32
72038;BME280;59900;50.788;12.904;2022-09-27T09:04:28;95579.38;;;11.40;79.15
72038;BME280;59900;50.788;12.904;2022-09-27T09:10:05;95594.34;;;11.40;77.95
72038;BME280;59900;50.788;12.904;2022-09-27T09:13:08;95595.91;;;11.36;77.52
72038;BME280;59900;50.788;12.904;2022-09-27T09:15:46;95594.50;;;11.28;77.42
72038;BME280;59900;50.788;12.904;2022-09-27T09:18:33;95602.34;;;11.23;78.28
72038;BME280;59900;50.788;12.904;2022-09-27T09:21:50;95600.19;;;11.20;79.07
72038;BME280;59900;50.788;12.904;2022-09-27T09:24:26;95609.25;;;11.07;79.69
72038;BME280;59900;50.788;12.904;2022-09-27T09:27:16;95612.94;;;11.06;80.24
72038;BME280;59900;50.788;12.904;2022-09-27T09:29:58;95611.56;;;11.04;79.72
72038;BME280;59900;50.788;12.904;2022-09-27T09:32:33;95615.28;;;10.86;80.19
72038;BME280;59900;50.788;12.904;2022-09-27T09:35:06;95614.31;;;10.92;81.77
72038;BME280;59900;50.788;12.904;2022-09-27T09:38:01;95659.59;;;10.78;82.86
72038;BME280;59900;50.788;12.904;2022-09-27T09:40:38;95642.56;;;10.42;83.30
72038;BME280;59900;50.788;12.904;2022-09-27T09:43:23;95644.84;;;10.05;81.72
72038;BME280;59900;50.788;12.904;2022-09-27T09:45:54;95653.19;;;9.85;82.36
72038;BME280;59900;50.788;12.904;2022-09-27T09:48:45;95645.03;;;9.70;83.10
72038;BME280;59900;50.788;12.904;2022-09-27T09:51:24;95661.53;;;9.54;84.15
72038;BME280;59900;50.788;12.904;2022-09-27T09:53:57;95662.84;;;9.40;83.70
72038;BME280;59900;50.788;12.904;2022-09-27T09:56:32;95657.50;;;9.35;85.00
72038;BME280;59900;50.788;12.904;2022-09-27T09:59:09;95660.97;;;9.24;84.85
72038;BME280;59900;50.788;12.904;2022-09-27T10:01:41;95662.31;;;9.26;86.13
72038;BME280;59900;50.788;12.904;2022-09-27T10:04:16;95670.53;;;9.30;85.70
72038;BME280;59900;50.788;12.904;2022-09-27T10:06:42;95668.59;;;9.25;85.91
72038;BME280;59900;50.788;12.904;2022-09-27T10:09:11;95665.84;;;9.32;86.12
72038;BME280;59900;50.788;12.904;2022-09-27T10:11:40;95662.41;;;9.31;86.29
72038;BME280;59900;50.788;12.904;2022-09-27T10:14:10;95679.50;;;9.34;85.83
72038;BME280;59900;50.788;12.904;2022-09-27T10:16:38;95675.47;;;9.43;85.90
72038;BME280;59900;50.788;12.904;2022-09-27T10:19:04;95670.25;;;9.43;85.27
72038;BME280;59900;50.788;12.904;2022-09-27T10:21:32;95674.22;;;9.45;86.02
72038;BME280;59900;50.788;12.904;2022-09-27T10:24:03;95683.88;;;9.56;85.80
72038;BME280;59900;50.788;12.904;2022-09-27T10:26:29;95681.69;;;9.65;85.78
72038;BME280;59900;50.788;12.904;2022-09-27T10:28:55;95678.06;;;9.83;85.70
72038;BME280;59900;50.788;12.904;2022-09-27T10:31:21;95684.50;;;9.92;84.06
72038;BME280;59900;50.788;12.904;2022-09-27T10:33:54;95684.44;;;10.03;84.76
72038;BME280;59900;50.788;12.904;2022-09-27T10:36:25;95678.50;;;10.25;85.07
72038;BME280;59900;50.788;12.904;2022-09-27T10:38:54;95676.38;;;10.38;84.68
72038;BME280;59900;50.788;12.904;2022-09-27T10:43:57;95676.03;;;10.68;84.29
72038;BME280;59900;50.788;12.904;2022-09-27T10:46:27;95669.97;;;10.67;83.15
72038;BME280;59900;50.788;12.904;2022-09-27T10:49:12;95671.72;;;10.62;83.21
72038;BME280;59900;50.788;12.904;2022-09-27T10:51:42;95677.84;;;10.51;83.69
72038;BME280;59900;50.788;12.904;2022-09-27T10:54:19;95681.00;;;10.48;84.80
72038;BME280;59900;50.788;12.904;2022-09-27T10:56:53;95681.94;;;10.42;85.26
72038;BME280;59900;50.788;12.904;2022-09-27T10:59:20;95692.28;;;10.32;85.27
72038;BME280;59900;50.788;12.904;2022-09-27T11:01:45;95692.75;;;10.29;86.05
72038;BME280;59900;50.788;12.904;2022-09-27T11:04:31;95701.66;;;10.28;86.10
72038;BME280;59900;50.788;12.904;2022-09-27T11:07:17;95713.56;;;10.19;86.18
72038;BME280;59900;50.788;12.904;2022-09-27T11:09:55;95736.75;;;10.10;84.79
72038;BME280;59900;50.788;12.904;2022-09-27T11:12:26;95712.66;;;9.96;84.97
72038;BME280;59900;50.788;12.904;2022-09-27T11:14:56;95712.97;;;9.83;85.40
72038;BME280;59900;50.788;12.904;2022-09-27T11:17:39;95715.84;;;9.70;85.76
72038;BME280;59900;50.788;12.904;2022-09-27T11:20:24;95720.69;;;9.62;84.58
72038;BME280;59900;50.788;12.904;2022-09-27T11:25:43;95723.06;;;9.63;86.23
72038;BME280;59900;50.788;12.904;2022-09-27T11:31:35;95729.22;;;9.69;86.27
72038;BME280;59900;50.788;12.904;2022-09-27T11:40:04;95721.66;;;9.72;85.35
72038;BME280;59900;50.788;12.904;2022-09-27T11:42:53;95712.78;;;9.73;85.09
72038;BME280;59900;50.788;12.904;2022-09-27T11:45:37;95722.31;;;9.79;85.19
72038;BME280;59900;50.788;12.904;2022-09-27T11:48:21;95725.50;;;9.81;84.67
72038;BME280;59900;50.788;12.904;2022-09-27T11:51:23;95731.88;;;9.85;84.96
72038;BME280;59900;50.788;12.904;2022-09-27T11:54:09;95731.41;;;9.88;85.23
72038;BME280;59900;50.788;12.904;2022-09-27T11:56:59;95732.22;;;9.89;85.71
72038;BME280;59900;50.788;12.904;2022-09-27T12:02:33;95724.41;;;9.94;85.78
72038;BME280;59900;50.788;12.904;2022-09-27T12:05:28;95723.34;;;10.06;86.27
72038;BME280;59900;50.788;12.904;2022-09-27T12:10:49;95729.25;;;10.13;84.56
72038;BME280;59900;50.788;12.904;2022-09-27T12:13:31;95737.78;;;10.21;85.63
72038;BME280;59900;50.788;12.904;2022-09-27T12:15:58;95729.59;;;10.34;84.47
72038;BME280;59900;50.788;12.904;2022-09-27T12:18:37;95718.94;;;10.40;83.86
72038;BME280;59900;50.788;12.904;2022-09-27T12:21:05;95732.72;;;10.47;82.51
72038;BME280;59900;50.788;12.904;2022-09-27T12:23:42;95723.38;;;10.40;81.84
72038;BME280;59900;50.788;12.904;2022-09-27T12:26:17;95731.09;;;10.46;82.50
72038;BME280;59900;50.788;12.904;2022-09-27T12:28:50;95732.38;;;10.44;82.07
72038;BME280;59900;50.788;12.904;2022-09-27T12:31:26;95722.84;;;10.71;82.59
72038;BME280;59900;50.788;12.904;2022-09-27T12:33:56;95718.72;;;10.97;82.05
72038;BME280;59900;50.788;12.904;2022-09-27T12:36:31;95714.91;;;11.26;79.39
72038;BME280;59900;50.788;12.904;2022-09-27T12:39:04;95715.88;;;11.42;78.07
72038;BME280;59900;50.788;12.904;2022-09-27T12:41:38;95717.72;;;11.41;76.65
72038;BME280;59900;50.788;12.904;2022-09-27T12:44:08;95721.16;;;11.42;76.80
72038;BME280;59900;50.788;12.904;2022-09-27T12:46:48;95735.88;;;11.43;78.43
72038;BME280;59900;50.788;12.904;2022-09-27T12:52:02;95719.34;;;11.25;77.68
72038;BME280;59900;50.788;12.904;2022-09-27T13:00:00;95724.56;;;10.82;79.81
72038;BME280;59900;50.788;12.904;2022-09-27T13:13:14;95742.94;;;10.16;83.66
72038;BME280;59900;50.788;12.904;2022-09-27T13:15:43;95747.25;;;10.10;84.66
72038;BME280;59900;50.788;12.904;2022-09-27T13:21:03;95737.81;;;10.09;83.58
72038;BME280;59900;50.788;12.904;2022-09-27T13:25:56;95738.91;;;10.58;83.14
72038;BME280;59900;50.788;12.904;2022-09-27T13:31:00;95724.25;;;11.82;78.58
72038;BME280;59900;50.788;12.904;2022-09-27T13:33:40;95722.63;;;12.29;77.24
72038;BME280;59900;50.788;12.904;2022-09-27T13:46:55;95741.31;;;11.36;79.24
72038;BME280;59900;50.788;12.904;2022-09-27T13:49:25;95734.75;;;11.17;80.45
72038;BME280;59900;50.788;12.904;2022-09-27T13:51:56;95751.53;;;10.94;80.96
72038;BME280;59900;50.788;12.904;2022-09-27T13:56:59;95762.88;;;10.45;81.54
72038;BME280;59900;50.788;12.904;2022-09-27T13:59:35;95764.59;;;10.23;82.10
72038;BME280;59900;50.788;12.904;2022-09-27T14:02:20;95761.09;;;10.05;82.15
72038;BME280;59900;50.788;12.904;2022-09-27T14:04:50;95764.94;;;9.86;82.54
72038;BME280;59900;50.788;12.904;2022-09-27T14:07:37;95773.31;;;9.83;82.76
72038;BME280;59900;50.788;12.904;2022-09-27T14:10:05;95763.16;;;9.75;81.77
72038;BME280;59900;50.788;12.904;2022-09-27T14:12:38;95762.34;;;9.75;82.44
72038;BME280;59900;50.788;12.904;2022-09-27T14:15:07;95759.66;;;9.98;81.63
72038;BME280;59900;50.788;12.904;2022-09-27T14:17:41;95763.63;;;10.45;79.69
72038;BME280;59900;50.788;12.904;2022-09-27T14:20:40;95766.50;;;10.94;77.62
72038;BME280;59900;50.788;12.904;2022-09-27T14:23:17;95754.97;;;10.95;77.22
72038;BME280;59900;50.788;12.904;2022-09-27T14:25:53;95767.53;;;10.93;77.28
72038;BME280;59900;50.788;12.904;2022-09-27T14:28:21;95766.13;;;10.68;77.22
72038;BME280;59900;50.788;12.904;2022-09-27T14:30:47;95775.34;;;10.54;78.06
72038;BME280;59900;50.788;12.904;2022-09-27T14:33:30;95790.06;;;10.39;78.05